createdAt,value
2023-12-27T00:00:22.328Z,0.10
2023-12-27T00:02:24.043Z,0.20
2023-12-27T00:04:25.638Z,0.20
2023-12-27T00:06:27.745Z,0.20
2023-12-27T00:08:29.506Z,0.28
2023-12-27T00:10:31.061Z,0.28
2023-12-27T00:12:32.720Z,0.13
2023-12-27T00:14:34.394Z,0.20
2023-12-27T00:16:36.226Z,0.10
2023-12-27T00:18:38.014Z,0.10
2023-12-27T00:20:39.616Z,0.10
2023-12-27T00:22:41.870Z,0.10
2023-12-27T00:24:43.472Z,0.10
2023-12-27T00:26:45.142Z,0.20
2023-12-27T00:28:46.846Z,0.20
2023-12-27T00:30:52.726Z,0.20
2023-12-27T00:32:54.757Z,0.10
2023-12-27T00:34:56.784Z,0.20
2023-12-27T00:36:58.440Z,0.10
2023-12-27T00:39:00.366Z,0.20
2023-12-27T00:41:02.711Z,0.10
2023-12-27T00:43:04.486Z,0.20
2023-12-27T00:45:06.572Z,0.10
2023-12-27T00:47:08.217Z,0.10
2023-12-27T00:49:10.087Z,0.20
2023-12-27T00:51:20.460Z,0.20
2023-12-27T00:53:22.135Z,0.17
2023-12-27T00:55:24.767Z,0.20
2023-12-27T00:57:26.373Z,0.13
2023-12-27T00:59:28.184Z,0.10
2023-12-27T01:01:33.206Z,0.20
2023-12-27T01:03:34.911Z,0.20
2023-12-27T01:05:37.042Z,0.20
2023-12-27T01:07:38.842Z,0.10
2023-12-27T01:09:40.456Z,0.20
2023-12-27T01:11:42.066Z,0.10
2023-12-27T01:13:43.708Z,0.20
2023-12-27T01:15:45.348Z,0.20
2023-12-27T01:17:47.110Z,0.10
2023-12-27T01:19:48.958Z,0.10
2023-12-27T01:21:50.558Z,0.10
2023-12-27T01:23:52.731Z,0.10
2023-12-27T01:25:54.347Z,0.10
2023-12-27T01:27:56.141Z,0.10
2023-12-27T01:29:57.850Z,0.13
2023-12-27T01:31:59.992Z,0.15
2023-12-27T01:34:08.869Z,0.20
2023-12-27T01:36:14.706Z,0.10
2023-12-27T01:38:16.420Z,0.20
2023-12-27T01:40:18.177Z,0.15
2023-12-27T01:42:19.870Z,0.20
2023-12-27T01:44:21.461Z,0.20
2023-12-27T01:46:23.595Z,0.20
2023-12-27T01:48:25.722Z,0.10
2023-12-27T01:50:27.447Z,0.20
2023-12-27T01:52:29.099Z,0.10
2023-12-27T01:54:30.749Z,0.20
2023-12-27T01:56:33.209Z,0.10
2023-12-27T01:58:35.552Z,0.17
2023-12-27T02:00:40.750Z,0.20
2023-12-27T02:02:42.982Z,0.20
2023-12-27T02:04:44.849Z,0.20
2023-12-27T02:06:46.578Z,0.10
2023-12-27T02:08:48.220Z,0.20
2023-12-27T02:10:49.770Z,0.10
2023-12-27T02:12:51.339Z,0.20
2023-12-27T02:14:53.114Z,0.20
2023-12-27T02:16:54.858Z,0.10
2023-12-27T02:18:56.868Z,0.20
2023-12-27T02:20:58.846Z,0.20
2023-12-27T02:23:05.346Z,0.10
2023-12-27T02:25:07.264Z,0.30
2023-12-27T02:27:09.022Z,0.20
2023-12-27T02:29:10.735Z,0.10
2023-12-27T02:31:12.456Z,0.15
2023-12-27T02:33:14.285Z,0.20
2023-12-27T02:35:16.720Z,0.20
2023-12-27T02:37:18.628Z,0.20
2023-12-27T02:39:20.318Z,0.10
2023-12-27T02:41:23.093Z,0.20
2023-12-27T02:43:24.697Z,0.10
2023-12-27T02:45:26.532Z,0.20
2023-12-27T02:47:28.270Z,0.10
2023-12-27T02:49:30.230Z,0.20
2023-12-27T02:51:32.009Z,0.20
2023-12-27T02:53:33.738Z,0.20
2023-12-27T02:55:35.305Z,0.20
2023-12-27T02:57:37.171Z,0.20
2023-12-27T02:59:40.501Z,0.10
2023-12-27T03:01:42.125Z,0.10
2023-12-27T03:03:43.701Z,0.20
2023-12-27T03:05:45.302Z,0.20
2023-12-27T03:07:47.008Z,0.20
2023-12-27T03:09:48.787Z,0.20
2023-12-27T03:11:50.406Z,0.15
2023-12-27T03:13:52.082Z,0.20
2023-12-27T03:15:53.682Z,0.20
2023-12-27T03:17:55.478Z,0.10
2023-12-27T03:19:57.290Z,0.10
2023-12-27T03:21:58.892Z,0.20
2023-12-27T03:24:00.595Z,0.20
2023-12-27T03:26:02.228Z,0.20
2023-12-27T03:28:04.048Z,0.50
2023-12-27T03:30:06.332Z,0.10
2023-12-27T03:32:08.074Z,0.13
2023-12-27T03:34:09.803Z,0.10
2023-12-27T03:36:11.548Z,0.10
2023-12-27T03:38:13.166Z,0.20
2023-12-27T03:40:14.802Z,0.20
2023-12-27T03:42:20.400Z,0.13
2023-12-27T03:44:21.976Z,0.17
2023-12-27T03:46:23.598Z,0.10
2023-12-27T03:48:25.451Z,0.20
2023-12-27T03:50:27.240Z,0.10
2023-12-27T03:52:28.865Z,0.10
2023-12-27T03:54:30.591Z,0.10
2023-12-27T03:56:32.202Z,0.30
2023-12-27T03:58:35.114Z,0.10
2023-12-27T04:00:36.898Z,0.10
2023-12-27T04:02:38.571Z,0.20
2023-12-27T04:04:40.605Z,0.15
2023-12-27T04:06:42.296Z,0.10
2023-12-27T04:08:43.938Z,0.17
2023-12-27T04:10:45.556Z,0.28
2023-12-27T04:12:47.230Z,0.10
2023-12-27T04:14:49.262Z,0.20
2023-12-27T04:16:51.527Z,0.13
2023-12-27T04:18:53.211Z,0.50
2023-12-27T04:20:54.959Z,0.10
2023-12-27T04:22:56.567Z,0.10
2023-12-27T04:24:58.216Z,0.10
2023-12-27T04:26:59.929Z,0.10
2023-12-27T04:29:01.572Z,0.20
2023-12-27T04:31:03.292Z,0.20
2023-12-27T04:33:05.130Z,0.10
2023-12-27T04:35:07.299Z,0.10
2023-12-27T04:37:08.971Z,0.13
2023-12-27T04:39:10.637Z,0.20
2023-12-27T04:41:12.294Z,0.38
2023-12-27T04:43:14.307Z,0.10
2023-12-27T04:45:15.971Z,0.20
2023-12-27T04:47:17.672Z,0.10
2023-12-27T04:49:19.455Z,0.20
2023-12-27T04:51:21.396Z,0.20
2023-12-27T04:53:23.316Z,0.20
2023-12-27T04:55:24.999Z,0.10
2023-12-27T04:57:26.646Z,0.13
2023-12-27T04:59:28.279Z,0.10
2023-12-27T05:01:29.917Z,0.10
2023-12-27T05:03:36.359Z,0.20
2023-12-27T05:05:38.185Z,0.20
2023-12-27T05:07:39.791Z,0.10
2023-12-27T05:09:41.535Z,0.10
2023-12-27T05:11:43.620Z,0.10
2023-12-27T05:13:45.256Z,0.20
2023-12-27T05:15:47.779Z,0.10
2023-12-27T05:17:49.409Z,0.10
2023-12-27T05:19:51.053Z,0.10
2023-12-27T05:21:52.695Z,0.10
2023-12-27T05:23:54.356Z,0.10
2023-12-27T05:25:56.077Z,0.17
2023-12-27T05:27:57.850Z,0.20
2023-12-27T05:29:59.995Z,0.10
2023-12-27T05:32:01.940Z,0.20
2023-12-27T05:34:04.018Z,0.10
2023-12-27T05:36:06.586Z,0.10
2023-12-27T05:38:08.266Z,0.20
2023-12-27T05:40:10.393Z,0.10
2023-12-27T05:42:14.288Z,0.20
2023-12-27T05:44:15.875Z,0.30
2023-12-27T05:46:17.611Z,0.10
2023-12-27T05:48:19.568Z,0.10
2023-12-27T05:50:21.320Z,0.10
2023-12-27T05:52:25.085Z,0.10
2023-12-27T05:54:27.593Z,0.10
2023-12-27T05:56:29.479Z,0.17
2023-12-27T05:58:31.293Z,0.20
2023-12-27T06:00:32.990Z,0.10
2023-12-27T06:02:35.105Z,0.10
2023-12-27T06:04:36.766Z,0.10
2023-12-27T06:06:38.438Z,0.10
2023-12-27T06:08:40.079Z,0.10
2023-12-27T06:10:41.696Z,0.10
2023-12-27T06:12:43.266Z,0.10
2023-12-27T06:14:45.787Z,0.10
2023-12-27T06:16:47.460Z,0.10
2023-12-27T06:18:49.233Z,0.10
2023-12-27T06:20:50.929Z,0.10
2023-12-27T06:22:52.511Z,0.10
2023-12-27T06:24:54.152Z,0.20
2023-12-27T06:26:55.743Z,0.10
2023-12-27T06:28:57.407Z,0.10
2023-12-27T06:31:00.825Z,0.10
2023-12-27T06:33:02.746Z,0.10
2023-12-27T06:35:04.638Z,0.10
2023-12-27T06:37:06.196Z,0.10
2023-12-27T06:39:07.933Z,0.17
2023-12-27T06:41:09.739Z,0.20
2023-12-27T06:43:11.435Z,0.10
2023-12-27T06:45:13.090Z,0.10
2023-12-27T06:47:14.725Z,0.10
2023-12-27T06:49:16.389Z,0.10
2023-12-27T06:51:18.905Z,0.10
2023-12-27T06:53:20.600Z,0.10
2023-12-27T06:55:22.485Z,0.17
2023-12-27T06:57:24.098Z,0.10
2023-12-27T06:59:26.735Z,0.10
2023-12-27T07:01:28.462Z,0.00
2023-12-27T07:03:30.188Z,0.10
2023-12-27T07:05:32.121Z,0.10
2023-12-27T07:07:33.862Z,0.10
2023-12-27T07:09:35.428Z,0.17
2023-12-27T07:11:37.136Z,0.10
2023-12-27T07:13:38.789Z,0.10
2023-12-27T07:15:40.458Z,0.13
2023-12-27T07:17:42.162Z,0.10
2023-12-27T07:19:43.826Z,0.10
2023-12-27T07:21:45.611Z,0.10
2023-12-27T07:23:47.448Z,0.10
2023-12-27T07:25:50.057Z,0.10
2023-12-27T07:27:51.735Z,0.10
2023-12-27T07:29:55.562Z,0.10
2023-12-27T07:31:58.072Z,0.10
2023-12-27T07:34:00.256Z,0.10
2023-12-27T07:36:02.207Z,0.10
2023-12-27T07:38:04.794Z,0.10
2023-12-27T07:40:07.085Z,0.10
2023-12-27T07:42:08.705Z,0.10
2023-12-27T07:44:10.317Z,0.10
2023-12-27T07:46:11.897Z,0.10
2023-12-27T07:48:13.706Z,0.10
2023-12-27T07:50:15.409Z,0.13
2023-12-27T07:52:17.099Z,0.10
2023-12-27T07:54:18.859Z,0.10
2023-12-27T07:56:20.437Z,0.10
2023-12-27T07:58:22.318Z,0.10
2023-12-27T08:00:24.096Z,0.10
2023-12-27T08:02:25.885Z,0.10
2023-12-27T08:04:27.712Z,0.20
2023-12-27T08:06:29.482Z,0.10
2023-12-27T08:08:31.201Z,0.10
2023-12-27T08:10:32.902Z,0.30
2023-12-27T08:12:34.521Z,0.10
2023-12-27T08:14:37.352Z,0.10
2023-12-27T08:16:38.949Z,0.10
2023-12-27T08:18:40.626Z,0.20
2023-12-27T08:20:42.430Z,0.10
2023-12-27T08:22:43.981Z,0.10
2023-12-27T08:24:45.669Z,0.10
2023-12-27T08:26:47.821Z,0.10
2023-12-27T08:28:49.447Z,0.10
2023-12-27T08:30:51.269Z,0.10
2023-12-27T08:32:53.235Z,0.10
2023-12-27T08:34:55.023Z,0.13
2023-12-27T08:36:56.709Z,0.10
2023-12-27T08:38:58.422Z,0.13
2023-12-27T08:41:00.245Z,0.10
2023-12-27T08:43:01.981Z,0.10
2023-12-27T08:45:04.120Z,0.10
2023-12-27T08:47:06.192Z,0.10
2023-12-27T08:49:08.040Z,0.10
2023-12-27T08:51:10.458Z,0.10
2023-12-27T08:53:12.873Z,0.10
2023-12-27T08:55:15.300Z,0.10
2023-12-27T08:57:17.087Z,0.20
2023-12-27T08:59:19.351Z,0.10
2023-12-27T09:01:20.980Z,0.20
2023-12-27T09:03:23.267Z,0.10
2023-12-27T09:05:25.557Z,0.20
2023-12-27T09:07:27.298Z,0.20
2023-12-27T09:09:30.265Z,0.10
2023-12-27T09:11:40.974Z,0.10
2023-12-27T09:13:44.243Z,0.10
2023-12-27T09:15:45.987Z,0.20
2023-12-27T09:17:47.935Z,0.10
2023-12-27T09:19:49.679Z,0.10
2023-12-27T09:21:51.409Z,0.10
2023-12-27T09:23:53.159Z,0.10
2023-12-27T09:25:54.861Z,0.10
2023-12-27T09:27:56.968Z,0.10
2023-12-27T09:29:58.771Z,0.10
2023-12-27T09:32:00.534Z,0.30
2023-12-27T09:34:02.386Z,0.10
2023-12-27T09:36:04.301Z,0.10
2023-12-27T09:38:06.011Z,0.10
2023-12-27T09:40:08.372Z,0.10
2023-12-27T09:42:10.050Z,0.20
2023-12-27T09:44:14.637Z,0.40
2023-12-27T09:46:16.881Z,0.20
2023-12-27T09:48:19.058Z,0.20
2023-12-27T09:50:21.342Z,0.13
2023-12-27T09:52:24.323Z,0.15
2023-12-27T09:54:25.977Z,0.10
2023-12-27T09:56:29.099Z,0.20
2023-12-27T09:58:30.980Z,0.20
2023-12-27T10:00:34.247Z,0.10
2023-12-27T10:02:37.842Z,0.80
2023-12-27T10:05:06.514Z,0.20
2023-12-27T10:07:08.374Z,0.10
2023-12-27T10:09:14.395Z,0.30
2023-12-27T10:11:19.602Z,0.20
2023-12-27T10:13:22.359Z,0.20
2023-12-27T10:15:24.166Z,0.17
2023-12-27T10:17:26.043Z,0.10
2023-12-27T10:19:45.907Z,0.20
2023-12-27T10:21:47.691Z,0.10
2023-12-27T10:23:49.448Z,0.10
2023-12-27T10:25:52.312Z,0.20
2023-12-27T10:27:53.961Z,0.20
2023-12-27T10:29:55.569Z,0.20
2023-12-27T10:31:58.245Z,0.15
2023-12-27T10:34:04.169Z,0.10
2023-12-27T10:36:06.112Z,0.15
2023-12-27T10:38:08.416Z,0.20
2023-12-27T10:40:12.461Z,0.20
2023-12-27T10:42:17.767Z,0.20
2023-12-27T10:44:20.422Z,0.10
2023-12-27T10:46:22.141Z,0.10
2023-12-27T10:48:26.054Z,0.20
2023-12-27T10:50:29.897Z,0.10
2023-12-27T10:52:32.069Z,0.10
2023-12-27T10:54:34.463Z,0.10
2023-12-27T10:56:40.384Z,0.10
2023-12-27T10:58:45.009Z,0.20
2023-12-27T11:00:48.153Z,0.13
2023-12-27T11:02:51.127Z,0.10
2023-12-27T11:04:54.119Z,0.10
2023-12-27T11:06:56.631Z,0.15
2023-12-27T11:08:58.595Z,0.10
2023-12-27T11:11:02.395Z,0.20
2023-12-27T11:13:05.456Z,0.20
2023-12-27T11:15:08.323Z,0.17
2023-12-27T11:17:11.964Z,0.20
2023-12-27T11:19:14.304Z,0.15
2023-12-27T11:23:23.820Z,0.20
2023-12-27T11:25:25.818Z,0.20
2023-12-27T11:27:28.515Z,0.20
2023-12-27T11:29:32.997Z,0.20
2023-12-27T11:31:35.346Z,0.20
2023-12-27T11:33:37.137Z,0.15
2023-12-27T11:35:38.950Z,0.20
2023-12-27T11:37:41.900Z,0.20
2023-12-27T11:39:52.098Z,0.17
2023-12-27T11:41:54.083Z,0.13
2023-12-27T11:43:58.968Z,0.15
2023-12-27T11:46:04.769Z,0.20
2023-12-27T11:48:08.665Z,0.20
2023-12-27T11:50:10.328Z,0.20
2023-12-27T11:52:12.368Z,0.20
2023-12-27T11:54:24.432Z,0.20
2023-12-27T11:56:31.055Z,0.20
2023-12-27T11:58:34.148Z,0.10
2023-12-27T12:00:37.366Z,0.20
2023-12-27T12:02:48.506Z,0.10
2023-12-27T12:04:55.825Z,0.70
2023-12-27T12:07:00.613Z,0.37
2023-12-27T12:09:02.791Z,0.10
2023-12-27T12:11:06.032Z,0.20
2023-12-27T12:13:08.005Z,0.30
2023-12-27T12:15:10.386Z,0.17
2023-12-27T12:17:14.230Z,0.17
2023-12-27T12:19:17.454Z,0.10
2023-12-27T12:21:19.750Z,0.10
2023-12-27T12:23:21.622Z,0.20
2023-12-27T12:25:26.917Z,0.20
2023-12-27T12:27:28.592Z,0.20
2023-12-27T12:29:30.392Z,0.20
2023-12-27T12:31:32.373Z,0.40
2023-12-27T12:33:34.290Z,0.28
2023-12-27T12:35:35.982Z,1.50
2023-12-27T12:37:41.069Z,0.77
2023-12-27T12:39:42.974Z,1.08
2023-12-27T12:41:44.759Z,1.13
2023-12-27T12:43:46.543Z,1.20
2023-12-27T12:45:48.403Z,1.15
2023-12-27T12:47:51.571Z,1.45
2023-12-27T12:49:53.319Z,1.30
2023-12-27T12:51:59.379Z,1.30
2023-12-27T12:54:01.694Z,2.10
2023-12-27T12:56:03.633Z,1.40
2023-12-27T12:58:05.418Z,1.30
2023-12-27T13:00:07.566Z,1.23
2023-12-27T13:02:09.259Z,1.13
2023-12-27T13:04:10.967Z,1.30
2023-12-27T13:06:15.704Z,1.77
2023-12-27T13:08:17.403Z,1.83
2023-12-27T13:10:20.151Z,0.88
2023-12-27T13:12:23.529Z,0.68
2023-12-27T13:14:25.286Z,0.63
2023-12-27T13:16:26.991Z,0.45
2023-12-27T13:18:28.950Z,0.65
2023-12-27T13:20:30.885Z,0.80
2023-12-27T13:22:32.516Z,0.50
2023-12-27T13:24:34.776Z,0.68
2023-12-27T13:26:37.201Z,1.00
2023-12-27T13:28:38.826Z,0.68
2023-12-27T13:30:40.679Z,0.40
2023-12-27T13:32:42.408Z,0.40
2023-12-27T13:34:44.213Z,0.40
2023-12-27T13:36:47.761Z,0.45
2023-12-27T13:38:50.091Z,0.70
2023-12-27T13:40:52.499Z,0.40
2023-12-27T13:42:56.847Z,0.30
2023-12-27T13:44:59.289Z,0.25
2023-12-27T13:47:00.961Z,0.30
2023-12-27T13:49:03.004Z,0.20
2023-12-27T13:51:04.910Z,0.30
2023-12-27T13:53:06.695Z,0.28
2023-12-27T13:55:08.509Z,0.20
2023-12-27T13:57:10.204Z,0.20
2023-12-27T13:59:11.939Z,0.20
2023-12-27T14:01:14.212Z,0.20
2023-12-27T14:03:16.885Z,0.20
2023-12-27T14:05:19.051Z,0.20
2023-12-27T14:07:20.759Z,0.20
2023-12-27T14:09:22.611Z,0.20
2023-12-27T14:11:27.486Z,0.20
2023-12-27T14:13:29.143Z,0.20
2023-12-27T14:15:30.772Z,0.10
2023-12-27T14:17:33.887Z,0.20
2023-12-27T14:19:35.950Z,0.20
2023-12-27T14:21:37.852Z,0.20
2023-12-27T14:23:39.511Z,0.30
2023-12-27T14:25:41.147Z,0.20
2023-12-27T14:42:21.580Z,0.20
2023-12-27T14:44:23.527Z,0.50
2023-12-27T14:46:25.477Z,1.17
2023-12-27T14:48:31.066Z,1.50
2023-12-27T14:50:32.913Z,1.73
2023-12-27T14:52:34.702Z,1.98
2023-12-27T14:54:38.065Z,2.03
2023-12-27T14:56:39.849Z,2.40
2023-12-27T14:58:41.614Z,2.80
2023-12-27T15:00:43.403Z,2.80
2023-12-27T15:02:45.073Z,3.10
2023-12-27T15:04:46.874Z,3.20
2023-12-27T15:06:48.612Z,3.08
2023-12-27T15:08:50.323Z,2.50
2023-12-27T15:10:52.135Z,2.20
2023-12-27T15:12:53.812Z,2.30
2023-12-27T15:14:57.257Z,1.80
2023-12-27T15:16:58.898Z,2.55
2023-12-27T15:19:01.286Z,2.60
2023-12-27T15:21:03.183Z,4.05
2023-12-27T15:23:05.290Z,5.32
2023-12-27T15:25:07.702Z,10.88
2023-12-27T15:27:10.539Z,15.75
2023-12-27T15:29:12.206Z,15.02
2023-12-27T15:31:29.447Z,14.02
2023-12-27T15:33:31.562Z,16.20
2023-12-27T15:35:33.277Z,13.73
2023-12-27T15:37:34.879Z,11.68
2023-12-27T15:39:36.625Z,7.93
2023-12-27T15:41:38.328Z,6.05
2023-12-27T15:43:41.096Z,4.57
2023-12-27T15:45:42.726Z,3.50
2023-12-27T15:47:48.726Z,2.50
2023-12-27T15:49:50.822Z,1.75
2023-12-27T15:51:52.965Z,1.60
2023-12-27T15:53:55.738Z,1.20
2023-12-27T15:55:57.328Z,0.80
2023-12-27T15:57:59.419Z,0.60
2023-12-27T16:00:01.499Z,0.63
2023-12-27T16:02:04.199Z,0.40
2023-12-27T16:04:08.698Z,0.40
2023-12-27T16:06:11.737Z,0.30
2023-12-27T16:08:13.418Z,0.30
2023-12-27T16:12:22.463Z,0.20
2023-12-27T16:14:24.168Z,0.20
2023-12-27T16:16:25.773Z,0.20
2023-12-27T16:18:27.611Z,0.10
2023-12-27T16:20:29.582Z,0.20
2023-12-27T16:24:37.843Z,0.20
2023-12-27T16:26:39.427Z,0.20
2023-12-27T16:28:41.097Z,0.10
2023-12-27T16:32:50.841Z,0.20
2023-12-27T16:34:52.717Z,0.20
2023-12-27T16:36:55.574Z,0.15
2023-12-27T16:38:57.674Z,0.20
2023-12-27T16:41:01.226Z,0.20
2023-12-27T16:45:09.858Z,0.22
2023-12-27T16:47:11.485Z,0.10
2023-12-27T16:49:13.468Z,0.10
2023-12-27T16:51:16.074Z,0.20
2023-12-27T16:53:18.986Z,0.20
2023-12-27T16:57:27.239Z,0.10
2023-12-27T16:59:28.888Z,0.10
2023-12-27T17:01:30.537Z,0.20
2023-12-27T17:03:32.300Z,0.20
2023-12-27T17:05:37.230Z,0.20
2023-12-27T17:07:39.684Z,0.25
2023-12-27T17:11:47.914Z,0.13
2023-12-27T17:13:50.448Z,0.10
2023-12-27T17:15:52.284Z,0.20
2023-12-27T17:17:54.286Z,0.20
2023-12-27T17:22:03.803Z,0.20
2023-12-27T17:24:05.816Z,0.10
2023-12-27T17:26:10.201Z,0.20
2023-12-27T17:28:12.347Z,0.20
2023-12-27T17:30:14.872Z,0.10
2023-12-27T17:32:16.663Z,0.15
2023-12-27T17:34:18.784Z,0.30
2023-12-27T17:36:20.630Z,0.10
2023-12-27T17:38:22.424Z,0.20
2023-12-27T17:40:24.236Z,0.17
2023-12-27T17:42:26.075Z,0.20
2023-12-27T17:48:45.641Z,0.10
2023-12-27T17:50:47.553Z,0.20
2023-12-27T17:52:49.252Z,0.20
2023-12-27T17:54:52.099Z,0.15
2023-12-27T17:56:53.782Z,0.10
2023-12-27T18:01:02.263Z,0.20
2023-12-27T18:03:04.300Z,0.30
2023-12-27T18:05:06.436Z,0.10
2023-12-27T18:07:12.686Z,0.20
2023-12-27T18:09:15.016Z,0.17
2023-12-27T18:11:16.843Z,0.10
2023-12-27T18:13:18.446Z,0.20
2023-12-27T18:15:20.118Z,0.10
2023-12-27T18:17:21.842Z,0.10
2023-12-27T18:19:23.699Z,0.20
2023-12-27T18:21:26.174Z,0.20
2023-12-27T18:23:27.998Z,0.10
2023-12-27T18:25:29.963Z,0.15
2023-12-27T18:27:31.892Z,0.20
2023-12-27T18:29:37.754Z,0.10
2023-12-27T18:31:39.649Z,0.10
2023-12-27T18:37:49.646Z,0.10
2023-12-27T18:39:51.343Z,0.15
2023-12-27T18:41:54.832Z,0.10
2023-12-27T18:43:56.910Z,0.20
2023-12-27T18:48:08.326Z,0.10
2023-12-27T18:50:12.530Z,0.10
2023-12-27T18:52:15.020Z,0.10
2023-12-27T18:54:16.866Z,0.10
2023-12-27T18:56:20.990Z,0.20
2023-12-27T18:58:22.603Z,0.20
2023-12-27T19:00:24.544Z,0.15
2023-12-27T19:02:26.410Z,0.10
2023-12-27T19:04:28.090Z,0.20
2023-12-27T19:06:31.684Z,0.10
2023-12-27T19:08:33.703Z,0.10
2023-12-27T19:10:35.474Z,0.20
2023-12-27T19:12:37.472Z,0.17
2023-12-27T19:14:39.176Z,0.10
2023-12-27T19:16:40.827Z,0.10
2023-12-27T19:18:44.558Z,0.17
2023-12-27T19:20:46.199Z,0.10
2023-12-27T19:22:47.910Z,0.10
2023-12-27T19:24:50.472Z,0.20
2023-12-27T19:26:52.233Z,0.10
2023-12-27T19:28:53.947Z,0.10
2023-12-27T19:30:55.912Z,0.20
2023-12-27T19:32:57.936Z,0.17
2023-12-27T19:34:59.894Z,0.10
2023-12-27T19:37:01.644Z,0.10
2023-12-27T19:39:05.185Z,0.20
2023-12-27T19:41:07.197Z,0.20
2023-12-27T19:43:08.898Z,0.17
2023-12-27T19:45:10.921Z,0.10
2023-12-27T19:47:12.669Z,0.20
2023-12-27T19:49:14.304Z,0.10
2023-12-27T19:51:17.860Z,0.10
2023-12-27T19:53:19.917Z,0.10
2023-12-27T19:55:21.532Z,0.10
2023-12-27T19:57:23.275Z,0.10
2023-12-27T19:59:24.910Z,0.20
2023-12-27T20:01:27.298Z,0.10
2023-12-27T20:03:29.081Z,0.20
2023-12-27T20:05:30.732Z,0.20
2023-12-27T20:07:32.328Z,0.10
2023-12-27T20:09:33.981Z,0.17
2023-12-27T20:11:35.918Z,0.20
2023-12-27T20:13:38.278Z,0.20
2023-12-27T20:17:44.542Z,0.10
2023-12-27T20:19:46.280Z,0.10
2023-12-27T20:21:50.265Z,0.20
2023-12-27T20:23:53.542Z,0.10
2023-12-27T20:25:55.270Z,0.13
2023-12-27T20:27:58.440Z,0.10
2023-12-27T20:30:00.369Z,0.13
2023-12-27T20:32:02.022Z,0.10
2023-12-27T20:34:03.809Z,0.10
2023-12-27T20:36:05.787Z,0.10
2023-12-27T20:38:07.423Z,0.20
2023-12-27T20:40:10.031Z,0.10
2023-12-27T20:42:11.858Z,0.20
2023-12-27T20:44:13.781Z,0.20
2023-12-27T20:46:15.478Z,0.20
2023-12-27T20:48:17.887Z,0.10
2023-12-27T20:50:22.174Z,0.17
2023-12-27T20:52:24.108Z,0.10
2023-12-27T20:54:28.644Z,0.10
2023-12-27T20:56:30.291Z,0.10
2023-12-27T20:58:34.565Z,0.10
2023-12-27T21:00:36.880Z,0.10
2023-12-27T21:02:38.527Z,0.13
2023-12-27T21:04:40.167Z,0.15
2023-12-27T21:06:41.900Z,0.10
2023-12-27T21:08:43.917Z,0.10
2023-12-27T21:10:45.526Z,0.10
2023-12-27T21:12:47.430Z,0.20
2023-12-27T21:14:49.120Z,0.17
2023-12-27T21:16:50.778Z,0.10
2023-12-27T21:18:53.137Z,0.10
2023-12-27T21:20:55.249Z,0.10
2023-12-27T21:22:58.957Z,0.10
2023-12-27T21:25:00.815Z,0.13
2023-12-27T21:27:02.558Z,0.10
2023-12-27T21:29:04.272Z,0.10
2023-12-27T21:31:10.780Z,0.13
2023-12-27T21:33:12.523Z,0.10
2023-12-27T21:35:14.957Z,0.10
2023-12-27T21:37:16.535Z,0.10
2023-12-27T21:39:18.102Z,0.20
2023-12-27T21:41:20.542Z,0.10
2023-12-27T21:43:22.301Z,0.10
2023-12-27T21:45:23.920Z,0.10
2023-12-27T21:47:26.124Z,0.10
2023-12-27T21:49:28.043Z,0.10
2023-12-27T21:51:29.791Z,0.10
2023-12-27T21:53:31.441Z,0.17
2023-12-27T21:55:33.119Z,0.10
2023-12-27T21:57:34.735Z,0.20
2023-12-27T21:59:36.447Z,0.10
2023-12-27T22:01:38.250Z,0.20
2023-12-27T22:03:42.492Z,0.10
2023-12-27T22:05:44.134Z,0.10
2023-12-27T22:07:49.523Z,0.10
2023-12-27T22:09:56.326Z,0.20
2023-12-27T22:11:57.954Z,0.10
2023-12-27T22:13:59.712Z,0.10
2023-12-27T22:16:04.134Z,0.20
2023-12-27T22:18:05.944Z,0.10
2023-12-27T22:20:09.733Z,0.10
2023-12-27T22:22:11.309Z,0.10
2023-12-27T22:24:12.988Z,0.13
2023-12-27T22:26:15.034Z,0.20
2023-12-27T22:28:17.173Z,0.10
2023-12-27T22:30:18.797Z,0.17
2023-12-27T22:32:20.487Z,0.10
2023-12-27T22:34:22.375Z,0.10
2023-12-27T22:36:25.226Z,0.10
2023-12-27T22:38:27.484Z,0.10
2023-12-27T22:40:29.190Z,0.10
2023-12-27T22:42:30.817Z,0.10
2023-12-27T22:44:32.477Z,0.10
2023-12-27T22:46:34.174Z,0.10
2023-12-27T22:48:35.984Z,0.20
2023-12-27T22:50:37.693Z,0.10
2023-12-27T22:52:39.251Z,0.10
2023-12-27T22:54:41.042Z,0.10
2023-12-27T22:56:42.668Z,0.10
2023-12-27T22:58:44.317Z,0.10
2023-12-27T23:00:46.008Z,0.10
2023-12-27T23:02:49.464Z,0.10
2023-12-27T23:04:51.472Z,0.10
2023-12-27T23:06:54.339Z,0.10
2023-12-27T23:08:56.120Z,0.10
2023-12-27T23:10:58.395Z,0.10
2023-12-27T23:13:00.050Z,0.10
2023-12-27T23:15:01.778Z,0.20
2023-12-27T23:17:03.463Z,0.10
2023-12-27T23:19:05.185Z,0.10
2023-12-27T23:21:06.947Z,0.10
2023-12-27T23:23:08.642Z,0.10
2023-12-27T23:25:10.327Z,0.10
2023-12-27T23:27:13.797Z,0.10
2023-12-27T23:29:15.483Z,0.10
2023-12-27T23:31:17.198Z,0.10
2023-12-27T23:33:19.036Z,0.10
2023-12-27T23:35:20.809Z,0.10
2023-12-27T23:37:22.503Z,0.10
2023-12-27T23:39:24.107Z,0.10
2023-12-27T23:41:25.723Z,0.10
2023-12-27T23:43:27.700Z,0.10
2023-12-27T23:45:29.300Z,0.10
2023-12-27T23:47:31.158Z,0.10
2023-12-27T23:49:33.217Z,0.10
2023-12-27T23:51:35.160Z,0.10
2023-12-27T23:53:37.073Z,0.13
2023-12-27T23:55:38.688Z,0.10
2023-12-27T23:57:40.371Z,0.10
2023-12-27T23:59:42.501Z,0.10
